createdAt,value
2022-10-05T00:00:47.456Z,86.74
2022-10-05T00:01:47.463Z,86.92
2022-10-05T00:02:47.420Z,86.92
2022-10-05T00:03:47.462Z,86.74
2022-10-05T00:04:47.472Z,87.37
2022-10-05T00:05:47.387Z,87.37
2022-10-05T00:06:47.710Z,87.84
2022-10-05T00:07:47.406Z,87.93
2022-10-05T00:08:47.348Z,87.93
2022-10-05T00:09:47.348Z,88.40
2022-10-05T00:10:47.330Z,88.02
2022-10-05T00:11:47.375Z,88.40
2022-10-05T00:12:47.343Z,88.11
2022-10-05T00:13:47.300Z,88.58
2022-10-05T00:14:47.363Z,88.58
2022-10-05T00:15:47.288Z,88.68
2022-10-05T00:16:47.632Z,89.25
2022-10-05T00:17:47.268Z,88.77
2022-10-05T00:18:47.297Z,88.77
2022-10-05T00:19:47.317Z,88.58
2022-10-05T00:20:47.249Z,88.96
2022-10-05T00:21:47.225Z,88.68
2022-10-05T00:22:47.216Z,88.77
2022-10-05T00:23:47.214Z,88.68
2022-10-05T00:24:47.198Z,88.77
2022-10-05T00:25:47.235Z,88.87
2022-10-05T00:26:47.483Z,89.25
2022-10-05T00:27:47.191Z,88.96
2022-10-05T00:28:47.150Z,89.64
2022-10-05T00:29:47.152Z,89.25
2022-10-05T00:30:47.144Z,89.54
2022-10-05T00:31:47.255Z,89.93
2022-10-05T00:32:47.117Z,89.73
2022-10-05T00:33:47.126Z,89.64
2022-10-05T00:34:47.095Z,90.22
2022-10-05T00:35:47.090Z,90.12
2022-10-05T00:36:47.401Z,90.81
2022-10-05T00:37:47.109Z,90.32
2022-10-05T00:38:47.049Z,90.42
2022-10-05T00:39:47.064Z,90.81
2022-10-05T00:40:47.032Z,91.11
2022-10-05T00:41:47.031Z,91.21
2022-10-05T00:42:47.072Z,90.91
2022-10-05T00:43:47.047Z,91.01
2022-10-05T00:44:47.052Z,91.51
2022-10-05T00:45:47.035Z,91.11
2022-10-05T00:46:47.287Z,91.21
2022-10-05T00:47:46.966Z,90.71
2022-10-05T00:48:46.956Z,91.31
2022-10-05T00:49:46.968Z,91.11
2022-10-05T00:50:46.988Z,91.61
2022-10-05T00:51:46.932Z,91.71
2022-10-05T00:52:46.913Z,91.31
2022-10-05T00:53:46.905Z,91.51
2022-10-05T00:54:46.941Z,92.02
2022-10-05T00:55:46.897Z,91.81
2022-10-05T00:56:47.347Z,91.92
2022-10-05T00:57:46.877Z,92.63
2022-10-05T00:58:46.856Z,92.43
2022-10-05T00:59:46.894Z,93.05
2022-10-05T01:02:04.541Z,126.43
2022-10-05T01:03:05.433Z,111.06
2022-10-05T01:04:05.423Z,105.56
2022-10-05T01:05:05.453Z,102.06
2022-10-05T01:06:05.385Z,99.91
2022-10-05T01:07:05.392Z,98.78
2022-10-05T01:08:05.367Z,97.51
2022-10-05T01:09:05.367Z,96.71
2022-10-05T01:10:05.357Z,96.32
2022-10-05T01:11:05.408Z,96.04
2022-10-05T01:12:05.332Z,95.93
2022-10-05T01:13:05.333Z,95.16
2022-10-05T01:14:05.357Z,95.65
2022-10-05T01:15:05.308Z,95.05
2022-10-05T01:16:05.453Z,94.03
2022-10-05T01:17:05.288Z,94.94
2022-10-05T01:18:05.310Z,94.25
2022-10-05T01:19:05.271Z,94.09
2022-10-05T01:20:05.250Z,94.09
2022-10-05T01:21:05.256Z,94.57
2022-10-05T01:22:05.289Z,94.57
2022-10-05T01:23:05.292Z,94.09
2022-10-05T01:24:05.222Z,94.30
2022-10-05T01:25:05.203Z,96.06
2022-10-05T01:26:05.197Z,94.62
2022-10-05T01:27:05.250Z,94.19
2022-10-05T01:28:05.303Z,95.95
2022-10-05T01:29:05.162Z,94.41
2022-10-05T01:30:05.155Z,94.57
2022-10-05T01:31:05.191Z,93.77
2022-10-05T01:32:05.151Z,94.30
2022-10-05T01:33:05.175Z,94.73
2022-10-05T01:34:10.579Z,94.51
2022-10-05T01:35:05.118Z,96.06
2022-10-05T01:36:05.163Z,95.27
2022-10-05T01:37:05.083Z,94.57
2022-10-05T01:38:05.100Z,94.68
2022-10-05T01:39:05.129Z,95.27
2022-10-05T01:40:05.116Z,95.44
2022-10-05T01:41:05.042Z,95.44
2022-10-05T01:42:05.037Z,95.22
2022-10-05T01:43:05.087Z,95.71
2022-10-05T01:44:05.017Z,95.82
2022-10-05T01:45:05.004Z,96.10
2022-10-05T01:46:05.224Z,96.43
2022-10-05T01:47:04.983Z,96.38
2022-10-05T01:48:05.075Z,96.82
2022-10-05T01:49:04.965Z,97.00
2022-10-05T01:50:04.966Z,96.94
2022-10-05T01:51:04.950Z,97.17
2022-10-05T01:52:04.944Z,97.39
2022-10-05T01:53:04.932Z,97.68
2022-10-05T01:54:04.966Z,97.91
2022-10-05T01:55:04.926Z,97.97
2022-10-05T01:56:04.898Z,97.39
2022-10-05T01:57:04.884Z,98.78
2022-10-05T01:58:04.898Z,98.02
2022-10-05T01:59:04.885Z,98.78
2022-10-05T02:00:04.952Z,99.25
2022-10-05T02:01:04.933Z,98.90
2022-10-05T02:02:04.874Z,98.84
2022-10-05T02:03:04.827Z,98.78
2022-10-05T02:04:04.861Z,99.19
2022-10-05T02:05:04.821Z,99.79
2022-10-05T02:06:04.807Z,99.85
2022-10-05T02:07:04.827Z,100.82
2022-10-05T02:08:04.788Z,101.00
2022-10-05T02:09:04.765Z,101.12
2022-10-05T02:10:04.808Z,100.64
2022-10-05T02:11:04.762Z,100.70
2022-10-05T02:12:04.740Z,100.82
2022-10-05T02:13:04.722Z,100.82
2022-10-05T02:14:04.729Z,100.94
2022-10-05T02:15:04.867Z,101.19
2022-10-05T02:16:04.753Z,102.37
2022-10-05T02:17:04.695Z,102.12
2022-10-05T02:18:04.684Z,102.12
2022-10-05T02:19:04.665Z,101.93
2022-10-05T02:20:04.675Z,102.43
2022-10-05T02:21:04.690Z,103.32
2022-10-05T02:22:04.689Z,103.32
2022-10-05T02:23:04.632Z,103.20
2022-10-05T02:24:04.617Z,103.39
2022-10-05T02:25:04.606Z,103.78
2022-10-05T02:26:04.605Z,103.78
2022-10-05T02:27:04.642Z,104.10
2022-10-05T02:28:04.651Z,103.84
2022-10-05T02:29:04.569Z,104.10
2022-10-05T02:30:04.564Z,104.43
2022-10-05T02:31:04.619Z,105.02
2022-10-05T02:32:04.546Z,104.62
2022-10-05T02:33:04.573Z,105.02
2022-10-05T02:34:04.534Z,105.76
2022-10-05T02:35:04.520Z,105.76
2022-10-05T02:36:04.522Z,105.62
2022-10-05T02:37:04.547Z,107.19
2022-10-05T02:38:04.491Z,106.36
2022-10-05T02:39:04.466Z,106.36
2022-10-05T02:40:04.466Z,106.09
2022-10-05T02:41:04.452Z,106.36
2022-10-05T02:42:04.453Z,106.09
2022-10-05T02:43:04.482Z,106.23
2022-10-05T02:44:04.423Z,105.76
2022-10-05T02:45:04.475Z,105.69
2022-10-05T02:46:04.487Z,106.23
2022-10-05T02:47:04.397Z,106.64
2022-10-05T02:48:04.434Z,106.36
2022-10-05T02:49:04.434Z,106.30
2022-10-05T02:50:04.367Z,106.09
2022-10-05T02:51:04.350Z,106.23
2022-10-05T02:52:04.343Z,105.69
2022-10-05T02:53:04.331Z,105.35
2022-10-05T02:54:04.330Z,105.29
2022-10-05T02:55:04.363Z,105.22
2022-10-05T02:56:04.306Z,104.96
2022-10-05T02:57:04.286Z,105.62
2022-10-05T02:58:04.288Z,105.49
2022-10-05T02:59:04.320Z,106.43
2022-10-05T03:00:04.274Z,106.23
2022-10-05T03:01:04.323Z,105.35
2022-10-05T03:02:04.278Z,105.35
2022-10-05T03:03:04.278Z,105.49
2022-10-05T03:04:04.234Z,105.29
2022-10-05T03:05:04.227Z,106.09
2022-10-05T03:06:04.264Z,105.49
2022-10-05T03:07:04.202Z,105.09
2022-10-05T03:08:04.188Z,105.15
2022-10-05T03:09:04.404Z,104.36
2022-10-05T03:10:04.173Z,104.43
2022-10-05T03:11:04.164Z,104.49
2022-10-05T03:12:04.204Z,103.97
2022-10-05T03:13:04.135Z,104.23
2022-10-05T03:14:04.135Z,103.45
2022-10-05T03:15:04.124Z,103.32
2022-10-05T03:16:04.173Z,104.10
2022-10-05T03:17:04.089Z,105.29
2022-10-05T03:18:04.145Z,105.09
2022-10-05T03:19:04.076Z,105.35
2022-10-05T03:20:04.069Z,105.09
2022-10-05T03:21:04.066Z,106.30
2022-10-05T03:22:04.046Z,105.69
2022-10-05T03:23:04.037Z,105.49
2022-10-05T03:24:04.071Z,106.23
2022-10-05T03:25:04.019Z,106.78
2022-10-05T03:26:04.009Z,107.33
2022-10-05T03:27:03.999Z,108.66
2022-10-05T03:28:04.080Z,108.38
2022-10-05T03:29:04.019Z,107.88
2022-10-05T03:30:03.971Z,108.66
2022-10-05T03:31:04.030Z,108.87
2022-10-05T03:32:03.956Z,108.17
2022-10-05T03:33:03.999Z,107.95
2022-10-05T03:34:03.970Z,108.02
2022-10-05T03:35:03.967Z,108.02
2022-10-05T03:36:03.924Z,108.66
2022-10-05T03:37:03.898Z,108.09
2022-10-05T03:38:03.884Z,108.45
2022-10-05T03:39:03.881Z,108.02
2022-10-05T03:40:03.863Z,107.67
2022-10-05T03:41:03.903Z,107.61
2022-10-05T03:42:03.851Z,107.61
2022-10-05T03:43:03.835Z,107.81
2022-10-05T03:44:03.884Z,108.52
2022-10-05T03:45:03.834Z,108.02
2022-10-05T03:46:03.886Z,107.47
2022-10-05T03:47:03.802Z,107.95
2022-10-05T03:48:03.825Z,108.02
2022-10-05T03:49:03.819Z,107.88
2022-10-05T03:50:03.776Z,107.95
2022-10-05T03:51:03.759Z,108.09
2022-10-05T03:52:03.750Z,107.88
2022-10-05T03:53:03.789Z,108.31
2022-10-05T03:54:03.796Z,107.40
2022-10-05T03:55:03.718Z,107.61
2022-10-05T03:56:03.712Z,106.91
2022-10-05T03:57:03.713Z,107.26
2022-10-05T03:58:03.687Z,106.57
2022-10-05T03:59:03.707Z,106.50
2022-10-05T04:00:03.725Z,106.57
2022-10-05T04:01:03.655Z,105.96
2022-10-05T04:02:03.690Z,106.78
2022-10-05T04:03:03.718Z,105.76
2022-10-05T04:04:03.642Z,106.36
2022-10-05T04:05:03.662Z,106.09
2022-10-05T04:06:03.609Z,105.09
2022-10-05T04:07:03.674Z,104.89
2022-10-05T04:08:03.643Z,104.89
2022-10-05T04:09:03.646Z,104.89
2022-10-05T04:10:03.581Z,104.62
2022-10-05T04:11:03.555Z,104.49
2022-10-05T04:12:03.575Z,104.23
2022-10-05T04:13:03.533Z,104.36
2022-10-05T04:14:03.585Z,104.49
2022-10-05T04:15:03.516Z,103.91
2022-10-05T04:16:03.568Z,104.82
2022-10-05T04:17:03.502Z,104.89
2022-10-05T04:18:03.538Z,104.82
2022-10-05T04:19:03.506Z,104.89
2022-10-05T04:20:03.519Z,104.56
2022-10-05T04:21:03.460Z,105.42
2022-10-05T04:22:03.463Z,104.36
2022-10-05T04:23:03.443Z,105.35
2022-10-05T04:24:03.486Z,105.76
2022-10-05T04:25:03.427Z,105.29
2022-10-05T04:26:03.411Z,105.82
2022-10-05T04:27:03.398Z,106.43
2022-10-05T04:28:03.485Z,106.03
2022-10-05T04:29:03.379Z,106.23
2022-10-05T04:30:03.503Z,106.16
2022-10-05T04:31:03.440Z,106.71
2022-10-05T04:32:03.350Z,106.50
2022-10-05T04:33:03.344Z,106.57
2022-10-05T04:34:03.345Z,106.36
2022-10-05T04:35:03.319Z,106.64
2022-10-05T04:36:03.366Z,107.40
2022-10-05T04:37:03.307Z,107.12
2022-10-05T04:38:03.292Z,106.78
2022-10-05T04:39:03.278Z,107.54
2022-10-05T04:40:03.303Z,107.47
2022-10-05T04:41:03.264Z,108.24
2022-10-05T04:42:03.316Z,107.74
2022-10-05T04:43:03.249Z,107.88
2022-10-05T04:44:03.230Z,108.09
2022-10-05T04:45:03.216Z,109.02
2022-10-05T04:46:03.220Z,108.45
2022-10-05T04:47:03.294Z,108.17
2022-10-05T04:48:03.241Z,109.66
2022-10-05T04:49:03.197Z,108.59
2022-10-05T04:50:03.187Z,108.52
2022-10-05T04:51:03.167Z,108.52
2022-10-05T04:52:03.202Z,108.80
2022-10-05T04:53:03.101Z,109.02
2022-10-05T04:54:03.194Z,109.38
2022-10-05T04:55:03.128Z,109.59
2022-10-05T04:56:03.142Z,109.95
2022-10-05T04:57:03.057Z,110.17
2022-10-05T04:58:03.048Z,110.17
2022-10-05T04:59:03.028Z,111.06
2022-10-05T05:00:03.111Z,110.61
2022-10-05T05:01:03.131Z,110.46
2022-10-05T05:02:03.003Z,110.54
2022-10-05T05:03:02.994Z,110.76
2022-10-05T05:04:03.034Z,111.50
2022-10-05T05:05:02.967Z,111.50
2022-10-05T05:06:17.045Z,110.46
2022-10-05T05:07:02.955Z,111.95
2022-10-05T05:08:02.946Z,110.46
2022-10-05T05:09:02.930Z,111.58
2022-10-05T05:10:02.918Z,111.20
2022-10-05T05:11:02.912Z,110.61
2022-10-05T05:12:02.955Z,110.61
2022-10-05T05:13:02.893Z,111.06
2022-10-05T05:14:02.884Z,110.32
2022-10-05T05:15:02.867Z,110.10
2022-10-05T05:16:02.986Z,110.03
2022-10-05T05:17:02.856Z,109.88
2022-10-05T05:18:02.843Z,109.88
2022-10-05T05:19:02.835Z,109.59
2022-10-05T05:20:02.825Z,109.30
2022-10-05T05:21:02.858Z,109.30
2022-10-05T05:22:02.813Z,109.23
2022-10-05T05:23:02.789Z,108.87
2022-10-05T05:24:02.782Z,108.73
2022-10-05T05:25:02.778Z,108.87
2022-10-05T05:26:02.807Z,108.31
2022-10-05T05:27:02.827Z,108.38
2022-10-05T05:28:02.779Z,108.09
2022-10-05T05:29:02.732Z,107.67
2022-10-05T05:30:02.735Z,107.47
2022-10-05T05:31:02.756Z,107.95
2022-10-05T05:32:02.755Z,107.26
2022-10-05T05:33:02.692Z,108.66
2022-10-05T05:34:02.679Z,108.17
2022-10-05T05:35:02.718Z,108.38
2022-10-05T05:36:02.712Z,108.24
2022-10-05T05:37:02.669Z,108.52
2022-10-05T05:38:02.643Z,109.02
2022-10-05T05:39:02.635Z,108.80
2022-10-05T05:40:02.672Z,108.09
2022-10-05T05:41:02.617Z,108.31
2022-10-05T05:42:02.599Z,109.09
2022-10-05T05:43:02.643Z,109.02
2022-10-05T05:44:02.593Z,109.02
2022-10-05T05:45:02.575Z,108.80
2022-10-05T05:46:02.613Z,108.94
2022-10-05T05:47:04.548Z,108.45
2022-10-05T05:48:02.593Z,109.09
2022-10-05T05:49:02.578Z,108.73
2022-10-05T05:50:07.014Z,108.45
2022-10-05T05:51:02.566Z,109.16
2022-10-05T05:52:02.508Z,108.73
2022-10-05T05:53:02.503Z,109.02
2022-10-05T05:54:02.543Z,109.38
2022-10-05T05:55:02.533Z,109.23
2022-10-05T05:56:02.522Z,109.30
2022-10-05T05:57:02.455Z,109.02
2022-10-05T05:58:02.465Z,108.80
2022-10-05T05:59:02.454Z,108.87
2022-10-05T06:00:02.476Z,108.38
2022-10-05T06:01:02.417Z,107.88
2022-10-05T06:02:02.501Z,107.88
2022-10-05T06:03:02.594Z,107.74
2022-10-05T06:04:02.394Z,108.02
2022-10-05T06:05:02.402Z,107.81
2022-10-05T06:06:02.409Z,108.02
2022-10-05T06:07:02.360Z,107.47
2022-10-05T06:08:02.355Z,107.19
2022-10-05T06:09:02.381Z,107.12
2022-10-05T06:10:02.383Z,106.09
2022-10-05T06:11:02.374Z,106.09
2022-10-05T06:12:02.351Z,106.23
2022-10-05T06:13:02.307Z,105.22
2022-10-05T06:14:02.288Z,105.89
2022-10-05T06:15:02.284Z,105.62
2022-10-05T06:16:02.390Z,104.76
2022-10-05T06:17:02.273Z,105.29
2022-10-05T06:18:02.249Z,105.56
2022-10-05T06:19:02.266Z,105.15
2022-10-05T06:20:05.349Z,106.36
2022-10-05T06:21:02.220Z,105.96
2022-10-05T06:22:02.277Z,107.05
2022-10-05T06:23:02.220Z,107.33
2022-10-05T06:24:02.186Z,106.36
2022-10-05T06:25:02.179Z,107.19
2022-10-05T06:26:02.535Z,106.43
2022-10-05T06:27:02.368Z,107.26
2022-10-05T06:28:02.248Z,106.78
2022-10-05T06:29:02.154Z,106.84
2022-10-05T06:30:02.130Z,106.64
2022-10-05T06:31:02.169Z,106.71
2022-10-05T06:32:02.143Z,106.78
2022-10-05T06:33:02.140Z,107.40
2022-10-05T06:34:02.141Z,107.19
2022-10-05T06:35:02.080Z,107.47
2022-10-05T06:36:02.064Z,107.40
2022-10-05T06:37:02.059Z,107.54
2022-10-05T06:38:02.094Z,108.02
2022-10-05T06:39:02.040Z,108.59
2022-10-05T06:40:02.093Z,108.52
2022-10-05T06:41:02.018Z,108.66
2022-10-05T06:42:02.088Z,108.87
2022-10-05T06:43:01.997Z,108.59
2022-10-05T06:44:02.037Z,109.23
2022-10-05T06:45:01.991Z,109.30
2022-10-05T06:46:02.007Z,109.38
2022-10-05T06:47:02.004Z,109.38
2022-10-05T06:48:05.412Z,109.23
2022-10-05T06:49:01.943Z,109.88
2022-10-05T06:50:01.967Z,109.16
2022-10-05T06:51:01.929Z,109.52
2022-10-05T06:52:01.917Z,109.16
2022-10-05T06:53:02.055Z,109.52
2022-10-05T06:54:01.896Z,109.02
2022-10-05T06:55:01.885Z,109.66
2022-10-05T06:56:01.918Z,110.17
2022-10-05T06:57:01.878Z,109.95
2022-10-05T06:58:01.852Z,109.74
2022-10-05T06:59:01.853Z,109.16
2022-10-05T07:00:01.918Z,109.81
2022-10-05T07:01:01.876Z,109.74
2022-10-05T07:02:01.911Z,109.16
2022-10-05T07:03:01.811Z,109.66
2022-10-05T07:04:01.828Z,109.30
2022-10-05T07:05:01.783Z,108.59
2022-10-05T07:06:01.777Z,109.02
2022-10-05T07:07:01.759Z,109.38
2022-10-05T07:08:01.792Z,108.80
2022-10-05T07:09:01.744Z,108.24
2022-10-05T07:10:01.777Z,108.24
2022-10-05T07:11:01.738Z,108.45
2022-10-05T07:12:05.225Z,108.31
2022-10-05T07:13:01.874Z,108.24
2022-10-05T07:14:01.694Z,108.09
2022-10-05T07:15:01.687Z,107.74
2022-10-05T07:16:01.733Z,106.78
2022-10-05T07:17:01.708Z,106.03
2022-10-05T07:18:01.691Z,106.09
2022-10-05T07:19:01.692Z,105.02
2022-10-05T07:20:01.633Z,104.96
2022-10-05T07:21:01.631Z,104.43
2022-10-05T07:22:01.663Z,103.39
2022-10-05T07:23:01.684Z,102.62
2022-10-05T07:24:01.609Z,102.69
2022-10-05T07:25:01.606Z,101.56
2022-10-05T07:26:01.569Z,100.45
2022-10-05T07:27:01.566Z,100.33
2022-10-05T07:28:01.771Z,99.25
2022-10-05T07:29:01.602Z,98.61
2022-10-05T07:30:01.545Z,97.56
2022-10-05T07:31:01.556Z,97.00
2022-10-05T07:32:01.508Z,95.77
2022-10-05T07:33:01.628Z,94.78
2022-10-05T07:34:01.533Z,94.73
2022-10-05T07:35:01.489Z,94.14
2022-10-05T07:36:01.474Z,95.73
2022-10-05T07:37:01.463Z,94.42
2022-10-05T07:38:01.513Z,95.18
2022-10-05T07:39:01.493Z,94.10
2022-10-05T07:40:01.674Z,94.21
2022-10-05T07:41:01.436Z,92.74
2022-10-05T07:42:01.415Z,93.89
2022-10-05T07:43:01.466Z,93.89
2022-10-05T07:44:02.989Z,93.26
2022-10-05T07:45:01.391Z,93.36
2022-10-05T07:46:01.428Z,93.78
2022-10-05T07:47:01.374Z,92.84
2022-10-05T07:48:01.391Z,92.32
2022-10-05T07:49:01.335Z,91.71
2022-10-05T07:50:01.387Z,92.63
2022-10-05T07:51:01.334Z,92.02
2022-10-05T07:52:01.307Z,91.92
2022-10-05T07:53:01.309Z,92.53
2022-10-05T07:54:01.345Z,92.32
2022-10-05T07:55:01.329Z,93.15
2022-10-05T07:56:01.264Z,93.26
2022-10-05T07:57:01.267Z,92.94
2022-10-05T07:58:01.266Z,93.68
2022-10-05T07:59:01.278Z,93.89
2022-10-05T08:00:01.282Z,93.78
2022-10-05T08:01:01.261Z,94.10
2022-10-05T08:02:01.349Z,94.10
2022-10-05T08:03:01.316Z,95.62
2022-10-05T08:04:01.249Z,95.95
2022-10-05T08:05:01.185Z,95.60
2022-10-05T08:06:01.170Z,96.66
2022-10-05T08:07:01.180Z,97.05
2022-10-05T08:08:01.165Z,97.34
2022-10-05T08:09:01.164Z,98.61
2022-10-05T08:10:01.276Z,98.90
2022-10-05T08:11:01.268Z,99.43
2022-10-05T08:12:01.161Z,98.49
2022-10-05T08:13:01.141Z,99.91
2022-10-05T08:14:01.087Z,102.06
2022-10-05T08:15:01.135Z,102.62
2022-10-05T08:16:01.114Z,104.89
2022-10-05T08:17:01.065Z,106.09
2022-10-05T08:18:01.048Z,105.29
2022-10-05T08:19:01.037Z,108.09
2022-10-05T08:20:01.098Z,112.48
2022-10-05T08:21:01.023Z,111.95
2022-10-05T08:22:01.033Z,113.79
2022-10-05T08:23:01.006Z,116.10
2022-10-05T08:24:00.989Z,117.32
2022-10-05T08:25:00.976Z,117.82
2022-10-05T08:26:01.052Z,115.93
2022-10-05T08:27:01.015Z,116.42
2022-10-05T08:28:01.574Z,118.24
2022-10-05T08:29:00.947Z,118.41
2022-10-05T08:30:00.997Z,117.91
2022-10-05T08:31:00.982Z,120.30
2022-10-05T08:32:00.903Z,121.88
2022-10-05T08:33:01.069Z,121.08
2022-10-05T08:34:00.890Z,118.16
2022-10-05T08:35:00.917Z,117.57
2022-10-05T08:36:00.925Z,119.52
2022-10-05T08:37:00.902Z,121.44
2022-10-05T08:38:01.003Z,123.15
2022-10-05T08:39:00.842Z,125.66
2022-10-05T08:40:00.868Z,126.14
2022-10-05T08:41:00.872Z,129.18
2022-10-05T08:42:00.808Z,131.42
2022-10-05T08:43:00.826Z,131.63
2022-10-05T08:44:00.820Z,134.40
2022-10-05T08:45:00.829Z,138.31
2022-10-05T08:46:00.816Z,145.71
2022-10-05T08:47:00.792Z,150.86
2022-10-05T08:48:00.757Z,151.55
2022-10-05T08:49:00.767Z,150.45
2022-10-05T08:50:00.745Z,149.64
2022-10-05T08:51:01.055Z,156.10
2022-10-05T08:52:00.702Z,151.83
2022-10-05T08:53:00.702Z,154.22
2022-10-05T08:54:00.703Z,148.70
2022-10-05T08:55:00.689Z,147.65
2022-10-05T08:56:00.669Z,147.12
2022-10-05T08:57:00.687Z,148.57
2022-10-05T08:58:00.666Z,148.44
2022-10-05T08:59:00.664Z,144.82
2022-10-05T09:00:00.623Z,146.22
2022-10-05T09:01:00.698Z,150.59
2022-10-05T09:02:00.605Z,151.14
2022-10-05T09:03:00.818Z,150.59
2022-10-05T09:04:00.601Z,152.52
2022-10-05T09:05:00.601Z,164.93
2022-10-05T09:06:00.563Z,170.86
2022-10-05T09:07:00.564Z,170.69
2022-10-05T09:08:00.572Z,168.10
2022-10-05T09:09:00.540Z,165.75
2022-10-05T09:10:01.836Z,168.27
2022-10-05T09:11:00.519Z,173.00
2022-10-05T09:12:00.504Z,175.18
2022-10-05T09:13:00.509Z,182.29
2022-10-05T09:14:00.551Z,177.43
2022-10-05T09:15:24.146Z,175.55
2022-10-05T09:16:00.539Z,176.11
2022-10-05T09:17:00.496Z,177.24
2022-10-05T09:18:00.488Z,172.82
2022-10-05T09:19:00.489Z,170.69
2022-10-05T09:20:00.444Z,170.16
2022-10-05T09:21:00.443Z,176.86
2022-10-05T09:22:00.420Z,183.50
2022-10-05T09:23:00.424Z,187.04
2022-10-05T09:24:00.391Z,193.57
2022-10-05T09:25:00.401Z,197.19
2022-10-05T09:26:00.368Z,196.84
2022-10-05T09:27:00.364Z,193.12
2022-10-05T09:28:00.409Z,196.60
2022-10-05T09:29:00.346Z,197.43
2022-10-05T09:30:00.343Z,198.87
2022-10-05T09:31:00.390Z,203.32
2022-10-05T09:32:00.317Z,208.65
2022-10-05T09:33:00.304Z,207.06
2022-10-05T09:34:00.292Z,207.72
2022-10-05T09:35:00.283Z,207.45
2022-10-05T09:36:00.291Z,199.60
2022-10-05T09:37:00.263Z,191.08
2022-10-05T09:38:00.321Z,193.12
2022-10-05T09:39:00.239Z,197.07
2022-10-05T09:40:01.446Z,200.46
2022-10-05T09:41:00.264Z,199.85
2022-10-05T09:42:00.225Z,204.47
2022-10-05T09:43:00.213Z,202.95
2022-10-05T09:44:00.189Z,206.02
2022-10-05T09:45:00.185Z,210.26
2022-10-05T09:46:00.350Z,211.76
2022-10-05T09:47:00.165Z,214.96
2022-10-05T09:48:00.206Z,219.58
2022-10-05T09:49:00.144Z,224.87
2022-10-05T09:50:00.208Z,239.18
2022-10-05T09:51:00.168Z,244.36
2022-10-05T09:52:00.112Z,245.10
2022-10-05T09:53:00.101Z,234.55
2022-10-05T09:54:00.094Z,228.48
2022-10-05T09:55:00.083Z,231.72
2022-10-05T09:56:00.085Z,241.83
2022-10-05T09:57:00.116Z,245.10
2022-10-05T09:58:00.053Z,248.83
2022-10-05T09:59:00.039Z,258.47
2022-10-05T10:00:00.096Z,258.27
2022-10-05T10:01:09.020Z,257.45
2022-10-05T10:02:00.151Z,263.68
2022-10-05T10:03:00.206Z,269.77
2022-10-05T10:03:59.996Z,278.75
2022-10-05T10:04:59.983Z,283.58
2022-10-05T10:05:59.981Z,285.82
2022-10-05T10:06:59.961Z,291.94
2022-10-05T10:08:00.008Z,298.34
2022-10-05T10:08:59.942Z,320.57
2022-10-05T10:09:59.996Z,330.29
2022-10-05T10:10:59.923Z,337.10
2022-10-05T10:11:59.918Z,353.51
2022-10-05T10:12:59.951Z,346.39
2022-10-05T10:13:59.903Z,360.13
2022-10-05T10:15:02.863Z,370.75
2022-10-05T10:15:59.989Z,364.14
2022-10-05T10:16:59.881Z,375.86
2022-10-05T10:17:59.905Z,386.47
2022-10-05T10:18:59.907Z,407.57
2022-10-05T10:19:59.844Z,408.57
2022-10-05T10:20:59.825Z,418.35
2022-10-05T10:21:59.820Z,408.07
2022-10-05T10:22:59.866Z,403.61
2022-10-05T10:23:59.799Z,439.38
2022-10-05T10:24:59.794Z,457.22
2022-10-05T10:25:59.785Z,460.70
2022-10-05T10:26:59.769Z,464.89
2022-10-05T10:27:59.810Z,450.40
2022-10-05T10:28:59.805Z,437.35
2022-10-05T10:29:59.740Z,440.25
2022-10-05T10:30:59.769Z,472.16
2022-10-05T10:31:59.743Z,488.12
2022-10-05T10:32:59.725Z,473.85
2022-10-05T10:33:59.753Z,468.17
2022-10-05T10:34:59.740Z,471.83
2022-10-05T10:36:02.968Z,482.80
2022-10-05T10:36:59.682Z,488.84
2022-10-05T10:37:59.727Z,489.56
2022-10-05T10:38:59.657Z,477.60
2022-10-05T10:39:59.701Z,494.30
2022-10-05T10:40:59.632Z,496.89
2022-10-05T10:41:59.673Z,491.37
2022-10-05T10:42:59.613Z,499.12
2022-10-05T10:43:59.603Z,523.51
2022-10-05T10:44:59.638Z,540.11
2022-10-05T10:45:59.664Z,548.58
2022-10-05T10:46:59.670Z,542.31
2022-10-05T10:47:59.566Z,556.86
2022-10-05T10:48:59.553Z,597.42
2022-10-05T10:49:59.761Z,595.82
2022-10-05T10:50:59.534Z,595.28
2022-10-05T10:51:59.577Z,581.22
2022-10-05T10:52:59.575Z,576.68
2022-10-05T10:53:59.580Z,575.68
2022-10-05T10:54:59.520Z,588.43
2022-10-05T10:55:59.495Z,580.71
2022-10-05T10:56:59.483Z,586.35
2022-10-05T10:57:59.466Z,594.22
2022-10-05T10:58:59.457Z,598.50
2022-10-05T10:59:59.500Z,606.15
2022-10-05T11:00:59.481Z,603.94
2022-10-05T11:01:59.506Z,626.73
2022-10-05T11:02:59.477Z,626.14
2022-10-05T11:03:59.408Z,622.62
2022-10-05T11:04:59.403Z,617.99
2022-10-05T11:05:59.462Z,608.92
2022-10-05T11:06:59.373Z,612.29
2022-10-05T11:07:59.390Z,630.30
2022-10-05T11:08:59.360Z,630.30
2022-10-05T11:09:59.408Z,636.95
2022-10-05T11:10:59.344Z,648.77
2022-10-05T11:11:59.343Z,648.77
2022-10-05T11:12:59.325Z,634.51
2022-10-05T11:13:59.314Z,655.81
2022-10-05T11:14:59.309Z,672.40
2022-10-05T11:15:59.400Z,653.87
2022-10-05T11:16:59.329Z,661.69
2022-10-05T11:17:59.275Z,661.03
2022-10-05T11:18:59.307Z,654.52
2022-10-05T11:20:04.180Z,682.07
2022-10-05T11:20:59.304Z,670.37
2022-10-05T11:21:59.246Z,721.32
2022-10-05T11:22:59.421Z,745.93
2022-10-05T11:23:59.233Z,749.72
2022-10-05T11:24:59.202Z,767.90
2022-10-05T11:25:59.192Z,762.18
2022-10-05T11:26:59.196Z,754.40
2022-10-05T11:27:59.281Z,752.69
2022-10-05T11:28:59.263Z,740.62
2022-10-05T11:29:59.152Z,740.62
2022-10-05T11:30:59.182Z,746.77
2022-10-05T11:31:59.138Z,726.05
2022-10-05T11:32:59.123Z,769.23
2022-10-05T11:33:59.166Z,810.97
2022-10-05T11:34:59.256Z,823.02
2022-10-05T11:35:59.102Z,838.59
2022-10-05T11:36:59.080Z,830.73
2022-10-05T11:37:59.082Z,806.06
2022-10-05T11:38:59.063Z,816.95
2022-10-05T11:39:59.086Z,819.97
2022-10-05T11:40:59.101Z,826.60
2022-10-05T11:41:59.050Z,846.59
2022-10-05T11:42:59.040Z,869.85
2022-10-05T11:44:03.132Z,864.20
2022-10-05T11:44:59.053Z,892.02
2022-10-05T11:45:59.146Z,908.47
2022-10-05T11:46:58.988Z,881.96
2022-10-05T11:47:58.978Z,904.15
2022-10-05T11:48:59.006Z,904.15
2022-10-05T11:49:59.205Z,896.23
2022-10-05T11:50:58.948Z,875.00
2022-10-05T11:51:58.948Z,862.52
2022-10-05T11:52:58.931Z,823.02
2022-10-05T11:53:58.918Z,797.36
2022-10-05T11:55:10.453Z,775.51
2022-10-05T11:55:58.904Z,795.45
2022-10-05T11:56:59.234Z,784.20
2022-10-05T11:57:58.888Z,763.05
2022-10-05T11:58:58.958Z,730.84
2022-10-05T11:59:58.864Z,748.45
2022-10-05T12:00:58.853Z,784.66
2022-10-05T12:01:58.886Z,794.98
2022-10-05T12:02:59.012Z,818.97
2022-10-05T12:03:58.984Z,807.53
2022-10-05T12:04:58.810Z,824.55
2022-10-05T12:05:58.855Z,832.81
2022-10-05T12:06:58.793Z,818.46
2022-10-05T12:07:58.830Z,825.57
2022-10-05T12:08:58.773Z,794.03
2022-10-05T12:09:58.818Z,774.16
2022-10-05T12:10:58.754Z,726.05
2022-10-05T12:11:58.743Z,748.45
2022-10-05T12:12:58.946Z,777.78
2022-10-05T12:13:58.742Z,812.46
2022-10-05T12:14:58.718Z,830.73
2022-10-05T12:15:58.803Z,768.34
2022-10-05T12:16:58.695Z,712.81
2022-10-05T12:17:58.694Z,722.89
2022-10-05T12:18:58.682Z,770.12
2022-10-05T12:19:58.668Z,773.71
2022-10-05T12:20:58.712Z,745.52
2022-10-05T12:21:58.644Z,718.98
2022-10-05T12:22:59.020Z,734.07
2022-10-05T12:23:58.681Z,750.99
2022-10-05T12:24:58.611Z,753.11
2022-10-05T12:25:58.607Z,732.45
2022-10-05T12:26:58.598Z,740.62
2022-10-05T12:27:58.618Z,759.13
2022-10-05T12:28:58.591Z,770.57
2022-10-05T12:29:58.620Z,788.38
2022-10-05T12:30:58.651Z,809.49
2022-10-05T12:31:58.560Z,794.50
2022-10-05T12:33:02.078Z,776.41
2022-10-05T12:33:58.534Z,763.93
2022-10-05T12:35:01.685Z,783.74